sensor_id;sensor_type;location;lat;lon;timestamp;P1;durP1;ratioP1;P2;durP2;ratioP2
38529;SDS011;24301;54.332;48.386;2024-02-26T00:00:00;5.80;;;4.30;;
38529;SDS011;24301;54.332;48.386;2024-02-26T00:02:26;8.20;;;4.97;;
38529;SDS011;24301;54.332;48.386;2024-02-26T00:04:52;9.27;;;4.87;;
38529;SDS011;24301;54.332;48.386;2024-02-26T00:07:18;9.70;;;4.87;;
38529;SDS011;24301;54.332;48.386;2024-02-26T00:09:43;6.57;;;4.53;;
38529;SDS011;24301;54.332;48.386;2024-02-26T00:12:09;6.93;;;4.33;;
38529;SDS011;24301;54.332;48.386;2024-02-26T00:14:35;9.50;;;4.93;;
38529;SDS011;24301;54.332;48.386;2024-02-26T00:17:01;9.17;;;4.27;;
38529;SDS011;24301;54.332;48.386;2024-02-26T00:19:28;9.83;;;5.80;;
38529;SDS011;24301;54.332;48.386;2024-02-26T00:21:53;7.67;;;4.30;;
38529;SDS011;24301;54.332;48.386;2024-02-26T00:24:20;7.23;;;4.63;;
38529;SDS011;24301;54.332;48.386;2024-02-26T00:26:46;10.83;;;5.40;;
38529;SDS011;24301;54.332;48.386;2024-02-26T00:29:18;7.93;;;4.53;;
38529;SDS011;24301;54.332;48.386;2024-02-26T00:31:45;10.47;;;5.00;;
38529;SDS011;24301;54.332;48.386;2024-02-26T00:34:11;9.47;;;5.07;;
38529;SDS011;24301;54.332;48.386;2024-02-26T00:36:36;8.27;;;5.30;;
38529;SDS011;24301;54.332;48.386;2024-02-26T00:39:02;8.27;;;4.67;;
38529;SDS011;24301;54.332;48.386;2024-02-26T00:41:29;12.73;;;5.77;;
38529;SDS011;24301;54.332;48.386;2024-02-26T00:43:55;8.23;;;5.03;;
38529;SDS011;24301;54.332;48.386;2024-02-26T00:46:21;11.57;;;6.33;;
38529;SDS011;24301;54.332;48.386;2024-02-26T00:48:47;7.27;;;3.73;;
38529;SDS011;24301;54.332;48.386;2024-02-26T00:51:12;9.53;;;4.67;;
38529;SDS011;24301;54.332;48.386;2024-02-26T00:53:38;9.60;;;5.10;;
38529;SDS011;24301;54.332;48.386;2024-02-26T00:56:04;8.30;;;4.90;;
38529;SDS011;24301;54.332;48.386;2024-02-26T00:58:30;9.47;;;5.17;;
38529;SDS011;24301;54.332;48.386;2024-02-26T01:00:56;7.77;;;4.50;;
38529;SDS011;24301;54.332;48.386;2024-02-26T01:03:22;10.33;;;5.03;;
38529;SDS011;24301;54.332;48.386;2024-02-26T01:05:48;11.20;;;5.43;;
38529;SDS011;24301;54.332;48.386;2024-02-26T01:08:14;10.07;;;5.23;;
38529;SDS011;24301;54.332;48.386;2024-02-26T01:10:39;10.70;;;4.40;;
38529;SDS011;24301;54.332;48.386;2024-02-26T01:13:05;11.30;;;5.30;;
38529;SDS011;24301;54.332;48.386;2024-02-26T01:15:33;8.43;;;5.07;;
38529;SDS011;24301;54.332;48.386;2024-02-26T01:17:58;9.33;;;4.50;;
38529;SDS011;24301;54.332;48.386;2024-02-26T01:20:24;8.50;;;4.50;;
38529;SDS011;24301;54.332;48.386;2024-02-26T01:22:50;10.03;;;5.53;;
38529;SDS011;24301;54.332;48.386;2024-02-26T01:25:16;9.63;;;5.23;;
38529;SDS011;24301;54.332;48.386;2024-02-26T01:27:43;6.83;;;4.63;;
38529;SDS011;24301;54.332;48.386;2024-02-26T01:30:09;8.57;;;4.80;;
38529;SDS011;24301;54.332;48.386;2024-02-26T01:32:36;7.20;;;4.27;;
38529;SDS011;24301;54.332;48.386;2024-02-26T01:35:02;7.20;;;4.47;;
38529;SDS011;24301;54.332;48.386;2024-02-26T01:37:35;9.35;;;4.70;;
38529;SDS011;24301;54.332;48.386;2024-02-26T01:40:01;7.23;;;3.93;;
38529;SDS011;24301;54.332;48.386;2024-02-26T01:42:29;8.23;;;4.30;;
38529;SDS011;24301;54.332;48.386;2024-02-26T01:44:57;6.83;;;4.57;;
38529;SDS011;24301;54.332;48.386;2024-02-26T01:47:24;6.47;;;3.63;;
38529;SDS011;24301;54.332;48.386;2024-02-26T01:49:52;7.10;;;4.03;;
38529;SDS011;24301;54.332;48.386;2024-02-26T01:52:19;5.70;;;3.50;;
38529;SDS011;24301;54.332;48.386;2024-02-26T01:54:46;6.63;;;3.80;;
38529;SDS011;24301;54.332;48.386;2024-02-26T01:57:17;6.40;;;3.57;;
38529;SDS011;24301;54.332;48.386;2024-02-26T01:59:43;8.70;;;4.10;;
38529;SDS011;24301;54.332;48.386;2024-02-26T02:02:09;5.90;;;4.53;;
38529;SDS011;24301;54.332;48.386;2024-02-26T02:04:38;7.10;;;4.43;;
38529;SDS011;24301;54.332;48.386;2024-02-26T02:07:05;6.63;;;3.53;;
38529;SDS011;24301;54.332;48.386;2024-02-26T02:09:31;6.93;;;3.87;;
38529;SDS011;24301;54.332;48.386;2024-02-26T02:11:57;7.33;;;3.53;;
38529;SDS011;24301;54.332;48.386;2024-02-26T02:14:24;5.27;;;3.40;;
38529;SDS011;24301;54.332;48.386;2024-02-26T02:16:51;7.37;;;3.53;;
38529;SDS011;24301;54.332;48.386;2024-02-26T02:19:16;5.87;;;3.53;;
38529;SDS011;24301;54.332;48.386;2024-02-26T02:21:42;7.23;;;3.60;;
38529;SDS011;24301;54.332;48.386;2024-02-26T02:24:08;6.20;;;3.53;;
38529;SDS011;24301;54.332;48.386;2024-02-26T02:26:34;8.43;;;3.40;;
38529;SDS011;24301;54.332;48.386;2024-02-26T02:29:00;5.03;;;3.40;;
38529;SDS011;24301;54.332;48.386;2024-02-26T02:31:26;6.40;;;3.63;;
38529;SDS011;24301;54.332;48.386;2024-02-26T02:33:52;7.27;;;3.80;;
38529;SDS011;24301;54.332;48.386;2024-02-26T02:36:18;8.00;;;4.30;;
38529;SDS011;24301;54.332;48.386;2024-02-26T02:39:03;6.63;;;3.60;;
38529;SDS011;24301;54.332;48.386;2024-02-26T02:41:28;5.83;;;3.70;;
38529;SDS011;24301;54.332;48.386;2024-02-26T02:43:55;5.33;;;3.23;;
38529;SDS011;24301;54.332;48.386;2024-02-26T02:46:21;6.53;;;3.73;;
38529;SDS011;24301;54.332;48.386;2024-02-26T02:48:47;5.33;;;3.10;;
38529;SDS011;24301;54.332;48.386;2024-02-26T02:51:13;5.70;;;3.90;;
38529;SDS011;24301;54.332;48.386;2024-02-26T02:53:39;7.47;;;4.07;;
38529;SDS011;24301;54.332;48.386;2024-02-26T02:56:04;6.87;;;3.70;;
38529;SDS011;24301;54.332;48.386;2024-02-26T02:58:31;7.90;;;3.70;;
38529;SDS011;24301;54.332;48.386;2024-02-26T03:00:56;6.97;;;3.73;;
38529;SDS011;24301;54.332;48.386;2024-02-26T03:03:22;5.50;;;3.73;;
38529;SDS011;24301;54.332;48.386;2024-02-26T03:05:49;6.00;;;3.40;;
38529;SDS011;24301;54.332;48.386;2024-02-26T03:08:15;8.07;;;4.03;;
38529;SDS011;24301;54.332;48.386;2024-02-26T03:10:41;5.97;;;3.47;;
38529;SDS011;24301;54.332;48.386;2024-02-26T03:13:08;6.77;;;3.60;;
38529;SDS011;24301;54.332;48.386;2024-02-26T03:15:34;6.47;;;3.60;;
38529;SDS011;24301;54.332;48.386;2024-02-26T03:18:00;7.10;;;4.40;;
38529;SDS011;24301;54.332;48.386;2024-02-26T03:20:26;7.63;;;3.90;;
38529;SDS011;24301;54.332;48.386;2024-02-26T03:22:52;7.87;;;4.30;;
38529;SDS011;24301;54.332;48.386;2024-02-26T03:25:18;6.03;;;3.40;;
38529;SDS011;24301;54.332;48.386;2024-02-26T03:27:44;6.90;;;4.37;;
38529;SDS011;24301;54.332;48.386;2024-02-26T03:30:09;13.53;;;3.73;;
38529;SDS011;24301;54.332;48.386;2024-02-26T03:32:35;5.60;;;3.70;;
38529;SDS011;24301;54.332;48.386;2024-02-26T03:35:01;6.60;;;3.80;;
38529;SDS011;24301;54.332;48.386;2024-02-26T03:37:29;5.83;;;3.90;;
38529;SDS011;24301;54.332;48.386;2024-02-26T03:39:54;8.10;;;4.43;;
38529;SDS011;24301;54.332;48.386;2024-02-26T03:42:22;7.60;;;4.17;;
38529;SDS011;24301;54.332;48.386;2024-02-26T03:44:48;8.03;;;4.23;;
38529;SDS011;24301;54.332;48.386;2024-02-26T03:47:14;8.50;;;3.93;;
38529;SDS011;24301;54.332;48.386;2024-02-26T03:49:39;8.37;;;4.07;;
38529;SDS011;24301;54.332;48.386;2024-02-26T03:52:05;9.40;;;4.00;;
38529;SDS011;24301;54.332;48.386;2024-02-26T03:54:31;6.13;;;3.80;;
38529;SDS011;24301;54.332;48.386;2024-02-26T03:56:57;7.33;;;3.97;;
38529;SDS011;24301;54.332;48.386;2024-02-26T03:59:23;7.20;;;3.80;;
38529;SDS011;24301;54.332;48.386;2024-02-26T04:01:50;7.70;;;3.70;;
38529;SDS011;24301;54.332;48.386;2024-02-26T04:04:16;8.93;;;4.73;;
38529;SDS011;24301;54.332;48.386;2024-02-26T04:06:45;6.77;;;4.17;;
38529;SDS011;24301;54.332;48.386;2024-02-26T04:09:13;7.33;;;4.10;;
38529;SDS011;24301;54.332;48.386;2024-02-26T04:11:40;5.97;;;3.90;;
38529;SDS011;24301;54.332;48.386;2024-02-26T04:14:05;5.33;;;3.93;;
38529;SDS011;24301;54.332;48.386;2024-02-26T04:16:34;8.13;;;4.33;;
38529;SDS011;24301;54.332;48.386;2024-02-26T04:19:01;7.77;;;4.23;;
38529;SDS011;24301;54.332;48.386;2024-02-26T04:21:27;4.80;;;3.50;;
38529;SDS011;24301;54.332;48.386;2024-02-26T04:24:02;5.47;;;3.57;;
38529;SDS011;24301;54.332;48.386;2024-02-26T04:27:00;5.73;;;3.97;;
38529;SDS011;24301;54.332;48.386;2024-02-26T04:29:26;6.50;;;4.20;;
38529;SDS011;24301;54.332;48.386;2024-02-26T04:31:51;6.13;;;3.63;;
38529;SDS011;24301;54.332;48.386;2024-02-26T04:34:17;7.13;;;3.63;;
38529;SDS011;24301;54.332;48.386;2024-02-26T04:36:43;7.23;;;3.77;;
38529;SDS011;24301;54.332;48.386;2024-02-26T04:39:09;6.47;;;4.13;;
38529;SDS011;24301;54.332;48.386;2024-02-26T04:41:35;6.37;;;3.90;;
38529;SDS011;24301;54.332;48.386;2024-02-26T04:44:01;4.53;;;3.37;;
38529;SDS011;24301;54.332;48.386;2024-02-26T04:46:27;5.83;;;3.70;;
38529;SDS011;24301;54.332;48.386;2024-02-26T04:48:53;7.70;;;3.70;;
38529;SDS011;24301;54.332;48.386;2024-02-26T04:51:19;6.17;;;3.80;;
38529;SDS011;24301;54.332;48.386;2024-02-26T04:53:45;4.77;;;3.60;;
38529;SDS011;24301;54.332;48.386;2024-02-26T04:56:11;7.17;;;3.70;;
38529;SDS011;24301;54.332;48.386;2024-02-26T04:58:36;4.13;;;3.07;;
38529;SDS011;24301;54.332;48.386;2024-02-26T05:01:03;8.03;;;4.53;;
38529;SDS011;24301;54.332;48.386;2024-02-26T05:03:29;6.00;;;3.10;;
38529;SDS011;24301;54.332;48.386;2024-02-26T05:05:55;4.30;;;3.40;;
38529;SDS011;24301;54.332;48.386;2024-02-26T05:08:22;5.50;;;3.40;;
38529;SDS011;24301;54.332;48.386;2024-02-26T05:10:48;7.37;;;4.00;;
38529;SDS011;24301;54.332;48.386;2024-02-26T05:13:14;6.63;;;3.77;;
38529;SDS011;24301;54.332;48.386;2024-02-26T05:15:41;5.17;;;3.90;;
38529;SDS011;24301;54.332;48.386;2024-02-26T05:18:07;6.53;;;3.93;;
38529;SDS011;24301;54.332;48.386;2024-02-26T05:20:33;5.97;;;3.43;;
38529;SDS011;24301;54.332;48.386;2024-02-26T05:23:03;5.63;;;3.70;;
38529;SDS011;24301;54.332;48.386;2024-02-26T05:25:29;6.67;;;3.70;;
38529;SDS011;24301;54.332;48.386;2024-02-26T05:27:55;6.60;;;4.40;;
38529;SDS011;24301;54.332;48.386;2024-02-26T05:30:21;5.47;;;3.77;;
38529;SDS011;24301;54.332;48.386;2024-02-26T05:32:47;5.57;;;3.80;;
38529;SDS011;24301;54.332;48.386;2024-02-26T05:35:13;8.53;;;3.77;;
38529;SDS011;24301;54.332;48.386;2024-02-26T05:37:40;5.87;;;3.83;;
38529;SDS011;24301;54.332;48.386;2024-02-26T05:40:06;5.97;;;3.43;;
38529;SDS011;24301;54.332;48.386;2024-02-26T05:42:32;5.37;;;3.33;;
38529;SDS011;24301;54.332;48.386;2024-02-26T05:44:58;5.20;;;3.00;;
38529;SDS011;24301;54.332;48.386;2024-02-26T05:47:24;3.60;;;2.40;;
38529;SDS011;24301;54.332;48.386;2024-02-26T05:49:50;4.20;;;3.00;;
38529;SDS011;24301;54.332;48.386;2024-02-26T05:52:16;6.07;;;3.33;;
38529;SDS011;24301;54.332;48.386;2024-02-26T05:54:42;7.57;;;3.43;;
38529;SDS011;24301;54.332;48.386;2024-02-26T05:57:07;3.57;;;2.87;;
38529;SDS011;24301;54.332;48.386;2024-02-26T05:59:33;4.37;;;3.17;;
38529;SDS011;24301;54.332;48.386;2024-02-26T06:01:59;5.17;;;2.93;;
38529;SDS011;24301;54.332;48.386;2024-02-26T06:04:25;4.93;;;3.10;;
38529;SDS011;24301;54.332;48.386;2024-02-26T06:06:50;4.67;;;3.20;;
38529;SDS011;24301;54.332;48.386;2024-02-26T06:09:16;5.27;;;3.57;;
38529;SDS011;24301;54.332;48.386;2024-02-26T06:11:42;4.93;;;3.43;;
38529;SDS011;24301;54.332;48.386;2024-02-26T06:14:08;4.60;;;3.43;;
38529;SDS011;24301;54.332;48.386;2024-02-26T06:16:35;4.73;;;3.17;;
38529;SDS011;24301;54.332;48.386;2024-02-26T06:19:01;4.23;;;3.00;;
38529;SDS011;24301;54.332;48.386;2024-02-26T06:21:27;5.53;;;3.43;;
38529;SDS011;24301;54.332;48.386;2024-02-26T06:23:53;5.10;;;3.07;;
38529;SDS011;24301;54.332;48.386;2024-02-26T06:26:19;4.47;;;3.00;;
38529;SDS011;24301;54.332;48.386;2024-02-26T06:28:44;4.63;;;3.30;;
38529;SDS011;24301;54.332;48.386;2024-02-26T06:31:10;5.50;;;3.80;;
38529;SDS011;24301;54.332;48.386;2024-02-26T06:33:36;5.50;;;3.40;;
38529;SDS011;24301;54.332;48.386;2024-02-26T06:36:02;6.63;;;3.23;;
38529;SDS011;24301;54.332;48.386;2024-02-26T06:38:28;4.53;;;3.00;;
38529;SDS011;24301;54.332;48.386;2024-02-26T06:40:54;5.40;;;3.37;;
38529;SDS011;24301;54.332;48.386;2024-02-26T06:43:19;4.77;;;3.50;;
38529;SDS011;24301;54.332;48.386;2024-02-26T06:45:45;5.60;;;3.77;;
38529;SDS011;24301;54.332;48.386;2024-02-26T06:48:11;6.13;;;3.40;;
38529;SDS011;24301;54.332;48.386;2024-02-26T06:50:37;6.55;;;3.58;;
38529;SDS011;24301;54.332;48.386;2024-02-26T06:53:03;7.60;;;4.00;;
38529;SDS011;24301;54.332;48.386;2024-02-26T06:55:29;9.80;;;3.65;;
38529;SDS011;24301;54.332;48.386;2024-02-26T06:57:54;6.22;;;3.90;;
38529;SDS011;24301;54.332;48.386;2024-02-26T07:00:20;6.50;;;4.47;;
38529;SDS011;24301;54.332;48.386;2024-02-26T07:02:46;6.70;;;4.03;;
38529;SDS011;24301;54.332;48.386;2024-02-26T07:05:12;10.18;;;4.40;;
38529;SDS011;24301;54.332;48.386;2024-02-26T07:07:38;5.70;;;3.65;;
38529;SDS011;24301;54.332;48.386;2024-02-26T07:10:04;7.45;;;4.70;;
38529;SDS011;24301;54.332;48.386;2024-02-26T07:12:31;9.05;;;4.78;;
38529;SDS011;24301;54.332;48.386;2024-02-26T07:14:56;7.15;;;4.43;;
38529;SDS011;24301;54.332;48.386;2024-02-26T07:17:23;8.32;;;5.07;;
38529;SDS011;24301;54.332;48.386;2024-02-26T07:19:49;10.40;;;6.25;;
38529;SDS011;24301;54.332;48.386;2024-02-26T07:22:15;8.50;;;5.57;;
38529;SDS011;24301;54.332;48.386;2024-02-26T07:24:41;7.88;;;5.47;;
38529;SDS011;24301;54.332;48.386;2024-02-26T07:27:07;9.38;;;5.57;;
38529;SDS011;24301;54.332;48.386;2024-02-26T07:29:33;6.60;;;4.68;;
38529;SDS011;24301;54.332;48.386;2024-02-26T07:31:58;8.02;;;4.82;;
38529;SDS011;24301;54.332;48.386;2024-02-26T07:34:24;9.73;;;5.05;;
38529;SDS011;24301;54.332;48.386;2024-02-26T07:36:57;8.95;;;4.78;;
38529;SDS011;24301;54.332;48.386;2024-02-26T07:39:23;8.25;;;5.00;;
38529;SDS011;24301;54.332;48.386;2024-02-26T07:41:49;12.15;;;5.63;;
38529;SDS011;24301;54.332;48.386;2024-02-26T07:44:17;8.32;;;4.78;;
38529;SDS011;24301;54.332;48.386;2024-02-26T07:46:43;7.00;;;4.53;;
38529;SDS011;24301;54.332;48.386;2024-02-26T07:49:09;5.95;;;4.00;;
38529;SDS011;24301;54.332;48.386;2024-02-26T07:51:34;6.47;;;4.05;;
38529;SDS011;24301;54.332;48.386;2024-02-26T07:54:00;9.55;;;5.45;;
38529;SDS011;24301;54.332;48.386;2024-02-26T07:56:30;8.13;;;4.63;;
38529;SDS011;24301;54.332;48.386;2024-02-26T07:58:56;5.10;;;3.63;;
38529;SDS011;24301;54.332;48.386;2024-02-26T08:01:21;9.05;;;4.10;;
38529;SDS011;24301;54.332;48.386;2024-02-26T08:03:48;5.75;;;4.55;;
38529;SDS011;24301;54.332;48.386;2024-02-26T08:06:14;7.25;;;4.40;;
38529;SDS011;24301;54.332;48.386;2024-02-26T08:08:47;6.40;;;4.03;;
38529;SDS011;24301;54.332;48.386;2024-02-26T08:11:15;5.90;;;3.83;;
38529;SDS011;24301;54.332;48.386;2024-02-26T08:13:43;7.50;;;3.58;;
38529;SDS011;24301;54.332;48.386;2024-02-26T08:16:21;6.70;;;3.63;;
38529;SDS011;24301;54.332;48.386;2024-02-26T08:18:47;6.03;;;3.85;;
38529;SDS011;24301;54.332;48.386;2024-02-26T08:21:13;5.82;;;4.22;;
38529;SDS011;24301;54.332;48.386;2024-02-26T08:23:39;6.55;;;3.88;;
38529;SDS011;24301;54.332;48.386;2024-02-26T08:26:05;7.80;;;4.07;;
38529;SDS011;24301;54.332;48.386;2024-02-26T08:28:32;6.95;;;3.65;;
38529;SDS011;24301;54.332;48.386;2024-02-26T08:30:58;8.37;;;4.23;;
38529;SDS011;24301;54.332;48.386;2024-02-26T08:33:24;7.10;;;3.60;;
38529;SDS011;24301;54.332;48.386;2024-02-26T08:35:50;5.40;;;3.63;;
38529;SDS011;24301;54.332;48.386;2024-02-26T08:38:15;7.60;;;4.67;;
38529;SDS011;24301;54.332;48.386;2024-02-26T08:40:41;8.53;;;4.27;;
38529;SDS011;24301;54.332;48.386;2024-02-26T08:43:07;10.70;;;4.87;;
38529;SDS011;24301;54.332;48.386;2024-02-26T08:45:33;6.53;;;3.93;;
38529;SDS011;24301;54.332;48.386;2024-02-26T08:47:59;6.73;;;4.40;;
38529;SDS011;24301;54.332;48.386;2024-02-26T08:50:25;7.27;;;4.10;;
38529;SDS011;24301;54.332;48.386;2024-02-26T08:52:51;10.13;;;4.90;;
38529;SDS011;24301;54.332;48.386;2024-02-26T08:55:18;7.50;;;4.37;;
38529;SDS011;24301;54.332;48.386;2024-02-26T08:57:44;9.97;;;4.10;;
38529;SDS011;24301;54.332;48.386;2024-02-26T09:00:10;6.27;;;3.53;;
38529;SDS011;24301;54.332;48.386;2024-02-26T09:02:36;8.40;;;4.17;;
38529;SDS011;24301;54.332;48.386;2024-02-26T09:05:04;9.80;;;4.07;;
38529;SDS011;24301;54.332;48.386;2024-02-26T09:07:31;6.97;;;4.70;;
38529;SDS011;24301;54.332;48.386;2024-02-26T09:09:57;9.90;;;4.37;;
38529;SDS011;24301;54.332;48.386;2024-02-26T09:12:22;9.00;;;5.73;;
38529;SDS011;24301;54.332;48.386;2024-02-26T09:14:48;5.63;;;4.13;;
38529;SDS011;24301;54.332;48.386;2024-02-26T09:17:14;7.27;;;3.83;;
38529;SDS011;24301;54.332;48.386;2024-02-26T09:19:40;5.80;;;4.27;;
38529;SDS011;24301;54.332;48.386;2024-02-26T09:22:07;7.20;;;4.00;;
38529;SDS011;24301;54.332;48.386;2024-02-26T09:24:33;6.53;;;3.90;;
38529;SDS011;24301;54.332;48.386;2024-02-26T09:26:59;4.97;;;2.93;;
38529;SDS011;24301;54.332;48.386;2024-02-26T09:29:25;8.17;;;3.70;;
38529;SDS011;24301;54.332;48.386;2024-02-26T09:31:51;8.10;;;4.37;;
38529;SDS011;24301;54.332;48.386;2024-02-26T09:34:17;7.17;;;4.10;;
38529;SDS011;24301;54.332;48.386;2024-02-26T09:36:43;6.80;;;3.60;;
38529;SDS011;24301;54.332;48.386;2024-02-26T09:39:09;6.50;;;3.70;;
38529;SDS011;24301;54.332;48.386;2024-02-26T09:41:36;11.60;;;3.77;;
38529;SDS011;24301;54.332;48.386;2024-02-26T09:44:02;8.50;;;4.57;;
38529;SDS011;24301;54.332;48.386;2024-02-26T09:46:30;11.33;;;3.40;;
38529;SDS011;24301;54.332;48.386;2024-02-26T09:48:56;8.80;;;3.60;;
38529;SDS011;24301;54.332;48.386;2024-02-26T09:51:23;7.60;;;3.67;;
38529;SDS011;24301;54.332;48.386;2024-02-26T09:53:53;9.30;;;4.87;;
38529;SDS011;24301;54.332;48.386;2024-02-26T09:56:21;7.50;;;3.43;;
38529;SDS011;24301;54.332;48.386;2024-02-26T09:58:47;9.50;;;3.97;;
38529;SDS011;24301;54.332;48.386;2024-02-26T10:01:18;9.03;;;4.27;;
38529;SDS011;24301;54.332;48.386;2024-02-26T10:03:47;8.87;;;3.70;;
38529;SDS011;24301;54.332;48.386;2024-02-26T10:06:17;8.90;;;5.17;;
38529;SDS011;24301;54.332;48.386;2024-02-26T10:08:43;9.50;;;4.83;;
38529;SDS011;24301;54.332;48.386;2024-02-26T10:11:10;8.47;;;4.57;;
38529;SDS011;24301;54.332;48.386;2024-02-26T10:13:36;10.33;;;5.07;;
38529;SDS011;24301;54.332;48.386;2024-02-26T10:16:02;7.93;;;4.37;;
38529;SDS011;24301;54.332;48.386;2024-02-26T10:21:17;12.50;;;5.97;;
38529;SDS011;24301;54.332;48.386;2024-02-26T10:23:44;8.77;;;4.60;;
38529;SDS011;24301;54.332;48.386;2024-02-26T10:26:13;8.30;;;3.97;;
38529;SDS011;24301;54.332;48.386;2024-02-26T10:28:43;8.70;;;4.70;;
38529;SDS011;24301;54.332;48.386;2024-02-26T10:31:10;8.90;;;4.63;;
38529;SDS011;24301;54.332;48.386;2024-02-26T10:33:36;8.23;;;5.07;;
38529;SDS011;24301;54.332;48.386;2024-02-26T10:36:06;12.83;;;5.97;;
38529;SDS011;24301;54.332;48.386;2024-02-26T10:38:36;12.07;;;5.60;;
38529;SDS011;24301;54.332;48.386;2024-02-26T10:41:03;9.43;;;5.27;;
38529;SDS011;24301;54.332;48.386;2024-02-26T10:43:31;11.57;;;6.13;;
38529;SDS011;24301;54.332;48.386;2024-02-26T10:45:57;17.20;;;5.17;;
38529;SDS011;24301;54.332;48.386;2024-02-26T10:48:23;7.50;;;5.03;;
38529;SDS011;24301;54.332;48.386;2024-02-26T10:50:50;11.60;;;5.97;;
38529;SDS011;24301;54.332;48.386;2024-02-26T10:53:22;10.03;;;5.30;;
38529;SDS011;24301;54.332;48.386;2024-02-26T10:55:54;12.15;;;5.25;;
38529;SDS011;24301;54.332;48.386;2024-02-26T10:58:23;8.20;;;5.22;;
38529;SDS011;24301;54.332;48.386;2024-02-26T11:00:50;20.73;;;5.60;;
38529;SDS011;24301;54.332;48.386;2024-02-26T11:03:17;13.47;;;5.53;;
38529;SDS011;24301;54.332;48.386;2024-02-26T11:05:50;10.03;;;4.93;;
38529;SDS011;24301;54.332;48.386;2024-02-26T11:08:19;10.70;;;7.33;;
38529;SDS011;24301;54.332;48.386;2024-02-26T11:10:47;15.20;;;5.30;;
38529;SDS011;24301;54.332;48.386;2024-02-26T11:13:14;9.37;;;5.13;;
38529;SDS011;24301;54.332;48.386;2024-02-26T11:15:42;7.27;;;4.10;;
38529;SDS011;24301;54.332;48.386;2024-02-26T11:18:09;7.80;;;4.50;;
38529;SDS011;24301;54.332;48.386;2024-02-26T11:20:38;7.70;;;4.30;;
38529;SDS011;24301;54.332;48.386;2024-02-26T11:23:06;8.77;;;4.73;;
38529;SDS011;24301;54.332;48.386;2024-02-26T11:25:34;8.00;;;4.20;;
38529;SDS011;24301;54.332;48.386;2024-02-26T11:28:03;10.87;;;5.03;;
38529;SDS011;24301;54.332;48.386;2024-02-26T11:30:32;9.53;;;5.63;;
38529;SDS011;24301;54.332;48.386;2024-02-26T11:33:03;7.43;;;4.50;;
38529;SDS011;24301;54.332;48.386;2024-02-26T11:35:33;9.07;;;5.37;;
38529;SDS011;24301;54.332;48.386;2024-02-26T11:38:01;9.13;;;5.13;;
38529;SDS011;24301;54.332;48.386;2024-02-26T11:40:29;8.57;;;4.60;;
38529;SDS011;24301;54.332;48.386;2024-02-26T11:42:57;9.33;;;3.77;;
38529;SDS011;24301;54.332;48.386;2024-02-26T11:48:11;6.60;;;3.60;;
38529;SDS011;24301;54.332;48.386;2024-02-26T11:50:40;10.00;;;3.90;;
38529;SDS011;24301;54.332;48.386;2024-02-26T11:53:23;7.13;;;3.57;;
38529;SDS011;24301;54.332;48.386;2024-02-26T11:58:45;5.60;;;3.63;;
38529;SDS011;24301;54.332;48.386;2024-02-26T12:04:12;8.57;;;5.15;;
38529;SDS011;24301;54.332;48.386;2024-02-26T12:06:46;5.80;;;3.73;;
38529;SDS011;24301;54.332;48.386;2024-02-26T12:09:30;6.77;;;3.87;;
38529;SDS011;24301;54.332;48.386;2024-02-26T12:11:56;6.63;;;3.50;;
38529;SDS011;24301;54.332;48.386;2024-02-26T12:14:25;7.87;;;4.10;;
38529;SDS011;24301;54.332;48.386;2024-02-26T12:16:52;8.73;;;4.70;;
38529;SDS011;24301;54.332;48.386;2024-02-26T12:19:18;5.07;;;3.03;;
38529;SDS011;24301;54.332;48.386;2024-02-26T12:21:44;5.03;;;3.60;;
38529;SDS011;24301;54.332;48.386;2024-02-26T12:24:16;7.83;;;3.53;;
38529;SDS011;24301;54.332;48.386;2024-02-26T12:26:43;6.73;;;3.60;;
38529;SDS011;24301;54.332;48.386;2024-02-26T12:29:10;13.87;;;4.20;;
38529;SDS011;24301;54.332;48.386;2024-02-26T12:31:36;6.20;;;3.23;;
38529;SDS011;24301;54.332;48.386;2024-02-26T12:34:04;6.17;;;3.23;;
38529;SDS011;24301;54.332;48.386;2024-02-26T12:36:30;5.70;;;3.20;;
38529;SDS011;24301;54.332;48.386;2024-02-26T12:38:56;8.40;;;3.83;;
38529;SDS011;24301;54.332;48.386;2024-02-26T12:41:22;7.10;;;3.53;;
38529;SDS011;24301;54.332;48.386;2024-02-26T12:43:48;8.57;;;3.83;;
38529;SDS011;24301;54.332;48.386;2024-02-26T12:46:14;12.70;;;4.90;;
38529;SDS011;24301;54.332;48.386;2024-02-26T12:48:46;4.80;;;3.13;;
38529;SDS011;24301;54.332;48.386;2024-02-26T12:51:12;9.03;;;4.10;;
38529;SDS011;24301;54.332;48.386;2024-02-26T12:53:41;8.03;;;4.00;;
38529;SDS011;24301;54.332;48.386;2024-02-26T12:56:10;5.00;;;3.60;;
38529;SDS011;24301;54.332;48.386;2024-02-26T12:58:38;7.40;;;3.63;;
38529;SDS011;24301;54.332;48.386;2024-02-26T13:01:06;6.63;;;3.80;;
38529;SDS011;24301;54.332;48.386;2024-02-26T13:03:33;9.30;;;4.40;;
38529;SDS011;24301;54.332;48.386;2024-02-26T13:06:01;9.50;;;4.17;;
38529;SDS011;24301;54.332;48.386;2024-02-26T13:08:28;6.30;;;3.33;;
38529;SDS011;24301;54.332;48.386;2024-02-26T13:10:54;6.90;;;3.80;;
38529;SDS011;24301;54.332;48.386;2024-02-26T13:13:20;7.90;;;3.50;;
38529;SDS011;24301;54.332;48.386;2024-02-26T13:15:46;8.20;;;4.00;;
38529;SDS011;24301;54.332;48.386;2024-02-26T13:18:12;5.83;;;3.60;;
38529;SDS011;24301;54.332;48.386;2024-02-26T13:20:40;7.97;;;4.17;;
38529;SDS011;24301;54.332;48.386;2024-02-26T13:23:07;7.40;;;4.20;;
38529;SDS011;24301;54.332;48.386;2024-02-26T13:25:35;16.37;;;4.47;;
38529;SDS011;24301;54.332;48.386;2024-02-26T13:28:25;8.13;;;3.73;;
38529;SDS011;24301;54.332;48.386;2024-02-26T13:30:53;7.73;;;4.43;;
38529;SDS011;24301;54.332;48.386;2024-02-26T13:33:23;22.60;;;5.20;;
38529;SDS011;24301;54.332;48.386;2024-02-26T13:35:50;9.97;;;5.77;;
38529;SDS011;24301;54.332;48.386;2024-02-26T13:38:16;9.60;;;4.40;;
38529;SDS011;24301;54.332;48.386;2024-02-26T13:40:42;5.33;;;3.37;;
38529;SDS011;24301;54.332;48.386;2024-02-26T13:43:08;9.70;;;3.87;;
38529;SDS011;24301;54.332;48.386;2024-02-26T13:45:34;7.70;;;3.70;;
38529;SDS011;24301;54.332;48.386;2024-02-26T13:48:07;6.73;;;3.80;;
38529;SDS011;24301;54.332;48.386;2024-02-26T13:50:37;6.15;;;4.20;;
38529;SDS011;24301;54.332;48.386;2024-02-26T13:53:04;6.10;;;3.70;;
38529;SDS011;24301;54.332;48.386;2024-02-26T13:55:31;6.67;;;3.50;;
38529;SDS011;24301;54.332;48.386;2024-02-26T13:57:57;8.07;;;4.40;;
38529;SDS011;24301;54.332;48.386;2024-02-26T14:00:25;8.07;;;3.63;;
38529;SDS011;24301;54.332;48.386;2024-02-26T14:02:50;9.33;;;3.83;;
38529;SDS011;24301;54.332;48.386;2024-02-26T14:05:16;6.77;;;3.30;;
38529;SDS011;24301;54.332;48.386;2024-02-26T14:07:42;7.47;;;3.70;;
38529;SDS011;24301;54.332;48.386;2024-02-26T14:10:09;4.13;;;2.90;;
38529;SDS011;24301;54.332;48.386;2024-02-26T14:12:38;8.67;;;3.97;;
38529;SDS011;24301;54.332;48.386;2024-02-26T14:15:06;9.63;;;3.93;;
38529;SDS011;24301;54.332;48.386;2024-02-26T14:17:32;6.17;;;3.10;;
38529;SDS011;24301;54.332;48.386;2024-02-26T14:19:58;9.17;;;4.20;;
38529;SDS011;24301;54.332;48.386;2024-02-26T14:22:24;8.90;;;3.73;;
38529;SDS011;24301;54.332;48.386;2024-02-26T14:24:51;7.50;;;4.07;;
38529;SDS011;24301;54.332;48.386;2024-02-26T14:27:18;8.70;;;4.03;;
38529;SDS011;24301;54.332;48.386;2024-02-26T14:29:46;12.27;;;4.90;;
38529;SDS011;24301;54.332;48.386;2024-02-26T14:32:12;6.77;;;3.70;;
38529;SDS011;24301;54.332;48.386;2024-02-26T14:34:38;9.43;;;4.53;;
38529;SDS011;24301;54.332;48.386;2024-02-26T14:37:04;7.97;;;4.10;;
38529;SDS011;24301;54.332;48.386;2024-02-26T14:39:33;5.60;;;3.97;;
38529;SDS011;24301;54.332;48.386;2024-02-26T14:42:00;8.57;;;4.27;;